Oakland, CA (94601)

12:30 AM PDT on May 26, 2017 (GMT -0700)
Highland Terrace | | Change Station

Elev 150 ft 37.79 °N, 122.23 °W | Updated 43 seconds ago

Mostly Cloudy
Mostly Cloudy
55.8 °F
Feels Like 55.8 °F
N
5.0
Wind Variable Wind from WNW
Gusts 9.0 mph

Today
High -- | Low -- °F
--% Chance of Precip.
Yesterday
High -- | Low -- °F
Precip. -- in
Pressure 29.87 in
Visibility 10.0 miles
Clouds Overcast 2900 ft
Dew Point 49 °F
Humidity 78%
Rainfall 0.00 in
Snow Depth Not available.
5:51 AM 8:21 PM
New Moon, 0% visible
SPECI KOAK 260706Z 23011KT 10SM OVC029 15/10 A2987 RMK AO2 T01500100
Pressure 29.87 in
Visibility 10.0 miles
Clouds Overcast 2900 ft
Dew Point 49 °F
Humidity 78%
Rainfall 0.00 in
Snow Depth Not available.
5:51 AM 8:21 PM
New Moon, 0% visible
SPECI KOAK 260706Z 23011KT 10SM OVC029 15/10 A2987 RMK AO2 T01500100

Get Severe Weather Alerts

Thanks for signing up!

Be on the lookout for a verification email in your inbox.

You'll start receiving the daily forecast at 6 AM.

×

10-Day Weather Forecast

Almanac

Astronomy

May. 26, 2017 Rise Set
Actual Time
Civil Twilight
Nautical Twilight
Astronomical Twilight
Moon
Length of Visible Light
Length of Day
Tomorrow will be .
, % of the Moon is Illuminated

Today's Extremes

State Highs State Lows

Community

WunderPhotos

Category 6

Welcome to Category 6. This is the collective home for Weather Underground's featured writeups by Dr. Jeff Masters (right), Bob Henson (left), Chris Burt, and other regular contributors.

Nearby

Air Quality

  Air Quality AQ Index Pollutant
Not available.

Snow Depth

Station Depth Elevation

Earthquake Activity

City Distance Mag. Time & Date
Minimum magnitude displayed is 2.5.

Coastal Water Temperatures

Place Temperature

Stations

Nearby Weather Stations

Station Location Temp. Windchill Dew Point Humidity Wind Precip. Elev Updated Type
                   

Watches & Warnings

There are currently no watches in effect.